Salem Center, Indiana
Current Conditions -  °F | °C
As of 3:15 PM on Monday 22 Dec 2014 (Local Time) from KANQ Reporting Station
Scattered Clouds Scattered Clouds  
Wind Chill: -1°   Ceiling: Unl
Heat Index:   Visibility: 10mi
Dew Point: -1°   Wind: 7mph
Humidity: 81%   Direction: 130°SE
Pressure: 29.86"   Gusts: NA
Location:  41.5628°N, 85.1391°W
Report Text: KANQ 222015Z AUTO 13006KT 10SM FEW040 SCT046 02/M01 A2986 RMK
Loading
Personal Weather Stations






























Interactive Weather Map New forecast layout! Learn more

10-Day Weather Forecast

Advertisements
Track Severe Weather on mobile